createdAt,value
2022-09-06T00:01:23.430Z,18.16
2022-09-06T00:03:50.924Z,18.14
2022-09-06T00:06:20.068Z,18.13
2022-09-06T00:08:48.241Z,18.12
2022-09-06T00:11:16.491Z,18.13
2022-09-06T00:13:43.849Z,18.15
2022-09-06T00:16:16.771Z,18.21
2022-09-06T00:18:43.887Z,18.24
2022-09-06T00:21:18.541Z,18.25
2022-09-06T00:23:45.193Z,18.27
2022-09-06T00:26:12.410Z,18.29
2022-09-06T00:28:39.759Z,18.29
2022-09-06T00:31:15.960Z,18.30
2022-09-06T00:33:42.963Z,18.26
2022-09-06T00:36:10.861Z,18.21
2022-09-06T00:38:38.388Z,18.13
2022-09-06T00:41:06.823Z,18.05
2022-09-06T00:43:33.594Z,17.97
2022-09-06T00:46:02.257Z,17.93
2022-09-06T00:48:29.007Z,17.97
2022-09-06T00:51:00.422Z,18.00
2022-09-06T00:53:27.523Z,18.05
2022-09-06T00:55:54.956Z,18.05
2022-09-06T00:58:21.891Z,18.06
2022-09-06T01:00:48.528Z,18.09
2022-09-06T01:03:15.350Z,18.12
2022-09-06T01:05:49.661Z,18.13
2022-09-06T01:08:36.784Z,18.13
2022-09-06T01:11:39.864Z,18.08
2022-09-06T01:14:25.352Z,18.07
2022-09-06T01:17:06.275Z,18.05
2022-09-06T01:19:53.931Z,18.01
2022-09-06T01:22:44.963Z,17.94
2022-09-06T01:25:20.401Z,17.90
2022-09-06T01:28:01.551Z,17.87
2022-09-06T01:30:28.293Z,17.79
2022-09-06T01:33:14.305Z,17.66
2022-09-06T01:35:44.356Z,17.55
2022-09-06T01:38:11.115Z,17.51
2022-09-06T01:40:37.789Z,17.52
2022-09-06T01:43:10.759Z,17.51
2022-09-06T01:46:05.622Z,17.50
2022-09-06T01:48:45.148Z,17.50
2022-09-06T01:51:24.067Z,17.50
2022-09-06T01:54:22.647Z,17.49
2022-09-06T01:56:58.251Z,17.51
2022-09-06T01:59:30.542Z,17.50
2022-09-06T02:02:18.393Z,17.41
2022-09-06T02:05:02.060Z,17.34
2022-09-06T02:07:31.464Z,17.28
2022-09-06T02:10:08.828Z,17.26
2022-09-06T02:12:39.565Z,17.26
2022-09-06T02:15:22.640Z,17.24
2022-09-06T02:17:58.345Z,17.17
2022-09-06T02:20:30.398Z,17.10
2022-09-06T02:23:01.579Z,17.06
2022-09-06T02:25:31.916Z,17.02
2022-09-06T02:27:58.586Z,17.00
2022-09-06T02:30:25.237Z,16.98
2022-09-06T02:32:59.875Z,16.95
2022-09-06T02:35:26.869Z,16.90
2022-09-06T02:37:53.598Z,16.91
2022-09-06T02:40:20.544Z,16.92
2022-09-06T02:42:47.185Z,16.93
2022-09-06T02:45:13.798Z,16.94
2022-09-06T02:47:40.363Z,16.96
2022-09-06T02:50:08.298Z,16.98
2022-09-06T02:52:34.857Z,16.99
2022-09-06T02:55:01.504Z,17.01
2022-09-06T02:57:28.187Z,16.96
2022-09-06T02:59:54.758Z,17.04
2022-09-06T03:02:21.387Z,17.06
2022-09-06T03:04:48.020Z,17.10
2022-09-06T03:07:14.601Z,17.16
2022-09-06T03:09:41.718Z,17.22
2022-09-06T03:12:08.728Z,17.29
2022-09-06T03:14:36.227Z,17.32
2022-09-06T03:17:04.002Z,17.34
2022-09-06T03:19:30.702Z,17.37
2022-09-06T03:21:57.404Z,17.34
2022-09-06T03:24:24.018Z,17.39
2022-09-06T03:26:50.921Z,17.39
2022-09-06T03:29:17.524Z,17.41
2022-09-06T03:31:44.070Z,17.43
2022-09-06T03:34:11.326Z,17.43
2022-09-06T03:36:38.040Z,17.43
2022-09-06T03:39:04.673Z,17.44
2022-09-06T03:41:31.244Z,17.43
2022-09-06T03:43:57.838Z,17.40
2022-09-06T03:46:24.525Z,17.28
2022-09-06T03:48:51.223Z,17.09
2022-09-06T03:51:18.013Z,16.90
2022-09-06T03:53:44.660Z,16.81
2022-09-06T03:56:11.230Z,16.67
2022-09-06T03:58:37.838Z,16.64
2022-09-06T04:01:08.534Z,16.68
2022-09-06T04:03:36.023Z,16.66
2022-09-06T04:06:03.498Z,16.69
2022-09-06T04:08:30.201Z,16.71
2022-09-06T04:10:58.604Z,16.79
2022-09-06T04:13:26.908Z,16.82
2022-09-06T04:15:53.844Z,16.87
2022-09-06T04:18:21.362Z,16.88
2022-09-06T04:20:49.666Z,16.95
2022-09-06T04:23:17.426Z,17.01
2022-09-06T04:25:47.932Z,17.06
2022-09-06T04:28:14.758Z,17.11
2022-09-06T04:30:41.657Z,17.08
2022-09-06T04:33:08.216Z,17.00
2022-09-06T04:35:34.850Z,16.93
2022-09-06T04:38:02.368Z,16.93
2022-09-06T04:40:29.172Z,17.02
2022-09-06T04:42:55.914Z,17.06
2022-09-06T04:45:22.571Z,17.19
2022-09-06T04:47:50.368Z,17.27
2022-09-06T04:50:17.422Z,17.39
2022-09-06T04:52:47.984Z,17.52
2022-09-06T04:55:14.915Z,17.59
2022-09-06T04:57:45.767Z,17.63
2022-09-06T05:00:14.381Z,17.65
2022-09-06T05:02:41.014Z,17.67
2022-09-06T05:05:08.058Z,17.64
2022-09-06T05:07:34.642Z,17.73
2022-09-06T05:10:01.262Z,17.78
2022-09-06T05:12:27.845Z,17.79
2022-09-06T05:14:54.464Z,17.74
2022-09-06T05:17:21.043Z,17.65
2022-09-06T05:19:48.430Z,17.63
2022-09-06T05:22:15.071Z,17.59
2022-09-06T05:24:41.687Z,17.57
2022-09-06T05:27:08.300Z,17.55
2022-09-06T05:29:34.903Z,17.56
2022-09-06T05:32:01.800Z,17.59
2022-09-06T05:34:28.531Z,17.63
2022-09-06T05:36:55.186Z,17.65
2022-09-06T05:39:22.014Z,17.67
2022-09-06T05:41:48.631Z,17.67
2022-09-06T05:44:16.337Z,17.66
2022-09-06T05:46:46.645Z,17.64
2022-09-06T05:49:13.712Z,17.66
2022-09-06T05:51:40.762Z,17.68
2022-09-06T05:54:07.978Z,17.65
2022-09-06T05:56:34.767Z,17.62
2022-09-06T05:59:01.495Z,17.57
2022-09-06T06:01:30.218Z,17.53
2022-09-06T06:03:58.863Z,17.55
2022-09-06T06:06:27.677Z,17.66
2022-09-06T06:08:54.304Z,17.78
2022-09-06T06:11:20.985Z,17.83
2022-09-06T06:13:47.586Z,17.92
2022-09-06T06:16:16.718Z,18.02
2022-09-06T06:18:47.636Z,18.10
2022-09-06T06:21:20.185Z,18.08
2022-09-06T06:23:50.699Z,18.08
2022-09-06T06:26:19.126Z,18.05
2022-09-06T06:28:46.014Z,17.99
2022-09-06T06:31:13.104Z,17.97
2022-09-06T06:33:40.024Z,17.91
2022-09-06T06:36:13.211Z,17.87
2022-09-06T06:38:41.820Z,17.84
2022-09-06T06:41:10.375Z,17.81
2022-09-06T06:43:38.041Z,17.85
2022-09-06T06:46:10.810Z,17.86
2022-09-06T06:48:40.673Z,17.90
2022-09-06T06:51:08.432Z,18.00
2022-09-06T06:53:35.507Z,18.10
2022-09-06T06:56:21.619Z,18.19
2022-09-06T06:58:50.151Z,18.35
2022-09-06T07:01:18.272Z,18.48
2022-09-06T07:03:44.937Z,18.63
2022-09-06T07:06:12.219Z,18.78
2022-09-06T07:08:40.058Z,18.94
2022-09-06T07:11:07.967Z,19.04
2022-09-06T07:13:34.830Z,19.11
2022-09-06T07:16:23.702Z,19.24
2022-09-06T07:18:55.028Z,19.37
2022-09-06T07:21:42.194Z,19.46
2022-09-06T07:24:09.475Z,19.51
2022-09-06T07:26:38.485Z,19.54
2022-09-06T07:29:06.833Z,19.53
2022-09-06T07:34:21.088Z,19.66
2022-09-06T07:36:48.483Z,19.71
2022-09-06T07:39:15.425Z,19.77
2022-09-06T07:41:43.189Z,19.81
2022-09-06T07:44:10.172Z,19.87
2022-09-06T07:46:37.173Z,19.90
2022-09-06T07:49:05.509Z,19.93
2022-09-06T07:51:32.591Z,19.97
2022-09-06T07:54:26.244Z,19.98
2022-09-06T07:56:46.556Z,19.94
2022-09-06T07:59:13.246Z,19.91
2022-09-06T08:01:40.936Z,19.82
2022-09-06T08:04:15.439Z,19.81
2022-09-06T08:09:35.333Z,19.85
2022-09-06T08:12:09.280Z,19.83
2022-09-06T08:14:36.346Z,19.91
2022-09-06T08:17:03.742Z,20.05
2022-09-06T08:19:30.375Z,20.08
2022-09-06T08:21:57.084Z,20.09
2022-09-06T08:24:23.717Z,20.20
2022-09-06T08:26:50.362Z,20.32
2022-09-06T08:29:17.186Z,20.45
2022-09-06T08:31:44.671Z,20.60
2022-09-06T08:34:15.255Z,20.75
2022-09-06T08:36:42.550Z,20.85
2022-09-06T08:39:10.827Z,21.03
2022-09-06T08:41:46.587Z,21.19
2022-09-06T08:47:09.350Z,21.52
2022-09-06T08:49:48.086Z,21.64
2022-09-06T08:52:26.577Z,21.75
2022-09-06T08:55:10.164Z,21.71
2022-09-06T08:57:56.188Z,21.76
2022-09-06T09:00:23.516Z,21.94
2022-09-06T09:03:16.844Z,22.10
2022-09-06T09:05:50.096Z,22.22
2022-09-06T09:08:19.743Z,22.37
2022-09-06T09:10:50.506Z,22.61
2022-09-06T09:13:45.120Z,22.83
2022-09-06T09:16:11.791Z,23.02
2022-09-06T09:18:41.829Z,22.98
2022-09-06T09:21:09.462Z,22.98
2022-09-06T09:23:36.255Z,23.02
2022-09-06T09:26:07.216Z,22.96
2022-09-06T09:28:33.787Z,22.98
2022-09-06T09:31:00.516Z,23.08
2022-09-06T09:33:41.109Z,23.14
2022-09-06T09:36:12.832Z,23.28
2022-09-06T09:38:44.879Z,23.39
2022-09-06T09:41:27.540Z,23.49
2022-09-06T09:44:19.021Z,23.54
2022-09-06T09:46:45.750Z,23.53
2022-09-06T09:49:24.263Z,23.58
2022-09-06T09:52:10.735Z,23.66
2022-09-06T09:54:40.536Z,23.80
2022-09-06T09:57:11.718Z,23.99
2022-09-06T09:59:48.132Z,24.11
2022-09-06T10:02:24.393Z,24.27
2022-09-06T10:05:12.317Z,24.42
2022-09-06T10:07:46.142Z,24.52
2022-09-06T10:10:24.552Z,24.65
2022-09-06T10:13:16.897Z,24.75
2022-09-06T10:15:43.974Z,24.74
2022-09-06T10:18:36.346Z,24.74
2022-09-06T10:21:19.388Z,24.70
2022-09-06T10:24:31.712Z,24.65
2022-09-06T10:27:02.495Z,24.76
2022-09-06T10:29:34.868Z,24.74
2022-09-06T10:32:24.987Z,24.73
2022-09-06T10:35:17.716Z,24.79
2022-09-06T10:38:21.405Z,24.91
2022-09-06T10:41:21.579Z,24.99
2022-09-06T10:44:00.164Z,25.03
2022-09-06T10:46:29.114Z,24.89
2022-09-06T10:48:55.986Z,24.83
2022-09-06T10:51:37.625Z,24.79
2022-09-06T10:54:10.952Z,24.78
2022-09-06T10:56:45.374Z,24.79
2022-09-06T10:59:52.198Z,24.97
2022-09-06T11:05:59.944Z,25.25
2022-09-06T11:08:47.920Z,25.34
2022-09-06T11:11:26.533Z,25.31
2022-09-06T11:13:53.208Z,25.34
2022-09-06T11:16:28.336Z,25.39
2022-09-06T11:19:08.035Z,25.45
2022-09-06T11:22:02.467Z,25.54
2022-09-06T11:25:17.682Z,25.65
2022-09-06T11:27:53.062Z,25.71
2022-09-06T11:30:22.893Z,25.74
2022-09-06T11:32:50.568Z,25.80
2022-09-06T11:35:32.627Z,26.02
2022-09-06T11:38:02.720Z,26.11
2022-09-06T11:40:45.927Z,26.23
2022-09-06T11:43:16.373Z,26.39
2022-09-06T11:45:52.311Z,26.41
2022-09-06T11:48:33.976Z,26.42
2022-09-06T11:51:06.511Z,26.47
2022-09-06T11:53:48.471Z,26.53
2022-09-06T11:56:47.063Z,26.72
2022-09-06T11:59:16.674Z,26.94
2022-09-06T12:01:59.381Z,27.20
2022-09-06T12:05:01.229Z,27.36
2022-09-06T12:07:29.090Z,27.44
2022-09-06T12:09:55.892Z,27.58
2022-09-06T12:12:45.842Z,27.69
2022-09-06T12:15:24.442Z,27.84
2022-09-06T12:17:51.068Z,27.97
2022-09-06T12:20:50.400Z,28.16
2022-09-06T12:23:35.335Z,28.23
2022-09-06T12:26:05.958Z,28.22
2022-09-06T12:28:52.119Z,28.08
2022-09-06T12:31:28.208Z,27.89
2022-09-06T12:33:57.191Z,27.70
2022-09-06T12:36:30.320Z,27.55
2022-09-06T12:38:58.661Z,27.53
2022-09-06T12:41:27.558Z,27.48
2022-09-06T12:43:56.277Z,27.44
2022-09-06T12:46:25.488Z,27.53
2022-09-06T12:49:02.145Z,27.58
2022-09-06T12:51:28.832Z,27.63
2022-09-06T12:54:05.089Z,27.56
2022-09-06T12:56:37.285Z,27.48
2022-09-06T12:59:17.104Z,27.38
2022-09-06T13:01:57.972Z,27.22
2022-09-06T13:04:49.834Z,26.98
2022-09-06T13:07:18.995Z,26.79
2022-09-06T13:09:48.997Z,26.72
2022-09-06T13:12:40.332Z,26.60
2022-09-06T13:15:31.308Z,26.60
2022-09-06T13:18:33.627Z,26.69
2022-09-06T13:21:19.406Z,26.71
2022-09-06T13:23:49.776Z,26.69
2022-09-06T13:26:33.760Z,26.63
2022-09-06T13:29:11.106Z,26.65
2022-09-06T13:31:39.001Z,26.65
2022-09-06T13:34:05.679Z,26.67
2022-09-06T13:36:33.780Z,26.65
2022-09-06T13:39:03.614Z,26.70
2022-09-06T13:41:30.231Z,26.90
2022-09-06T13:44:30.950Z,27.17
2022-09-06T13:46:58.116Z,27.37
2022-09-06T13:49:25.283Z,27.50
2022-09-06T13:51:53.845Z,27.61
2022-09-06T13:54:20.508Z,27.61
2022-09-06T13:56:48.530Z,27.63
2022-09-06T13:59:15.839Z,27.64
2022-09-06T14:01:45.515Z,27.68
2022-09-06T14:04:15.613Z,27.66
2022-09-06T14:06:42.273Z,27.53
2022-09-06T14:09:09.428Z,27.47
2022-09-06T14:11:36.667Z,27.49
2022-09-06T14:14:04.028Z,27.65
2022-09-06T14:16:31.642Z,27.79
2022-09-06T14:18:58.386Z,27.85
2022-09-06T14:21:25.134Z,27.72
2022-09-06T14:23:52.655Z,27.69
2022-09-06T14:26:21.028Z,27.70
2022-09-06T14:28:48.439Z,27.68
2022-09-06T14:31:20.924Z,27.67
2022-09-06T14:33:48.131Z,27.68
2022-09-06T14:36:17.336Z,27.71
2022-09-06T14:38:45.448Z,27.80
2022-09-06T14:41:14.480Z,27.78
2022-09-06T14:43:47.616Z,27.86
2022-09-06T14:46:15.321Z,27.84
2022-09-06T14:48:43.096Z,27.82
2022-09-06T14:51:20.815Z,27.80
2022-09-06T14:53:49.939Z,27.82
2022-09-06T14:56:16.980Z,27.79
2022-09-06T14:58:43.977Z,27.81
2022-09-06T15:01:14.865Z,27.74
2022-09-06T15:03:43.712Z,27.56
2022-09-06T15:06:10.924Z,27.50
2022-09-06T15:08:38.066Z,27.42
2022-09-06T15:11:06.940Z,27.49
2022-09-06T15:13:37.119Z,27.54
2022-09-06T15:16:05.805Z,27.38
2022-09-06T15:18:33.197Z,27.16
2022-09-06T15:21:11.987Z,26.94
2022-09-06T15:23:39.592Z,26.88
2022-09-06T15:26:08.379Z,26.76
2022-09-06T15:28:37.069Z,26.67
2022-09-06T15:31:04.695Z,26.61
2022-09-06T15:33:32.730Z,26.50
2022-09-06T15:36:05.898Z,26.43
2022-09-06T15:38:45.103Z,26.35
2022-09-06T15:41:13.766Z,26.25
2022-09-06T15:43:42.931Z,26.15
2022-09-06T15:46:10.096Z,26.14
2022-09-06T15:48:47.638Z,26.07
2022-09-06T15:51:17.508Z,25.97
2022-09-06T15:53:44.731Z,25.91
2022-09-06T15:56:14.436Z,25.82
2022-09-06T15:58:41.285Z,25.70
2022-09-06T16:01:09.302Z,25.65
2022-09-06T16:03:46.142Z,25.57
2022-09-06T16:08:51.375Z,25.42
2022-09-06T16:11:18.978Z,25.36
2022-09-06T16:13:46.023Z,25.27
2022-09-06T16:16:15.929Z,25.24
2022-09-06T16:18:44.559Z,25.22
2022-09-06T16:21:14.619Z,25.28
2022-09-06T16:23:42.420Z,25.30
2022-09-06T16:26:10.036Z,25.30
2022-09-06T16:28:37.766Z,25.61
2022-09-06T16:31:07.061Z,26.01
2022-09-06T16:33:35.744Z,26.60
2022-09-06T16:36:04.689Z,27.08
2022-09-06T16:38:32.332Z,27.39
2022-09-06T16:41:01.070Z,27.64
2022-09-06T16:43:28.406Z,27.61
2022-09-06T16:46:00.218Z,27.67
2022-09-06T16:48:27.624Z,27.41
2022-09-06T16:50:54.746Z,27.38
2022-09-06T16:53:22.279Z,27.46
2022-09-06T16:55:48.921Z,27.63
2022-09-06T16:58:15.528Z,28.07
2022-09-06T17:00:44.789Z,28.65
2022-09-06T17:03:15.248Z,29.97
2022-09-06T17:05:41.854Z,31.51
2022-09-06T17:08:08.574Z,31.76
2022-09-06T17:10:38.644Z,30.93
2022-09-06T17:13:05.249Z,29.75
2022-09-06T17:15:51.839Z,28.84
2022-09-06T17:18:18.469Z,27.81
2022-09-06T17:20:57.710Z,27.26
2022-09-06T17:23:24.591Z,26.84
2022-09-06T17:25:52.006Z,26.45
2022-09-06T17:28:19.294Z,26.02
2022-09-06T17:30:46.287Z,25.78
2022-09-06T17:33:13.553Z,25.57
2022-09-06T17:35:40.316Z,25.34
2022-09-06T17:38:06.951Z,25.12
2022-09-06T17:40:33.770Z,24.88
2022-09-06T17:43:00.696Z,24.74
2022-09-06T17:45:27.592Z,24.56
2022-09-06T17:47:54.215Z,24.38
2022-09-06T17:50:20.836Z,24.23
2022-09-06T17:52:50.815Z,24.13
2022-09-06T17:55:17.589Z,23.96
2022-09-06T17:57:44.161Z,23.85
2022-09-06T18:00:14.022Z,23.75
2022-09-06T18:02:40.662Z,23.67
2022-09-06T18:05:07.573Z,23.54
2022-09-06T18:07:34.152Z,23.45
2022-09-06T18:10:00.763Z,23.36
2022-09-06T18:12:30.344Z,23.25
2022-09-06T18:14:57.933Z,23.22
2022-09-06T18:17:24.752Z,23.12
2022-09-06T18:19:51.334Z,23.10
2022-09-06T18:22:17.937Z,23.02
2022-09-06T18:24:44.697Z,22.99
2022-09-06T18:27:11.264Z,22.90
2022-09-06T18:29:37.870Z,22.86
2022-09-06T18:32:04.505Z,22.82
2022-09-06T18:34:31.162Z,22.75
2022-09-06T18:36:58.806Z,22.72
2022-09-06T18:39:25.587Z,22.68
2022-09-06T18:42:01.214Z,22.66
2022-09-06T18:44:32.617Z,22.60
2022-09-06T18:47:02.205Z,22.50
2022-09-06T18:49:30.175Z,22.43
2022-09-06T18:51:56.775Z,22.34
2022-09-06T18:54:23.386Z,22.26
2022-09-06T18:56:50.093Z,22.16
2022-09-06T18:59:18.795Z,22.08
2022-09-06T19:01:45.544Z,22.02
2022-09-06T19:04:12.558Z,21.96
2022-09-06T19:06:41.155Z,21.91
2022-09-06T19:09:10.425Z,21.80
2022-09-06T19:11:37.204Z,21.80
2022-09-06T19:14:04.741Z,21.79
2022-09-06T19:16:32.001Z,21.77
2022-09-06T19:19:07.077Z,21.77
2022-09-06T19:21:39.162Z,21.74
2022-09-06T19:24:10.122Z,21.74
2022-09-06T19:26:39.470Z,21.69
2022-09-06T19:29:09.124Z,21.69
2022-09-06T19:31:37.102Z,21.66
2022-09-06T19:34:04.610Z,21.62
2022-09-06T19:36:32.004Z,21.64
2022-09-06T19:39:05.532Z,21.61
2022-09-06T19:41:35.639Z,21.57
2022-09-06T19:44:05.423Z,21.49
2022-09-06T19:46:32.290Z,21.49
2022-09-06T19:49:00.425Z,21.47
2022-09-06T19:51:27.093Z,21.35
2022-09-06T19:53:59.934Z,21.28
2022-09-06T19:56:32.653Z,21.24
2022-09-06T19:59:02.080Z,21.18
2022-09-06T20:01:31.205Z,21.17
2022-09-06T20:03:58.882Z,21.16
2022-09-06T20:06:26.784Z,21.11
2022-09-06T20:08:56.080Z,21.07
2022-09-06T20:11:25.344Z,21.05
2022-09-06T20:13:51.982Z,21.03
2022-09-06T20:16:20.819Z,21.02
2022-09-06T20:18:48.357Z,21.01
2022-09-06T20:21:17.678Z,20.98
2022-09-06T20:23:49.455Z,20.98
2022-09-06T20:26:17.502Z,20.98
2022-09-06T20:28:44.317Z,20.92
2022-09-06T20:31:17.086Z,20.91
2022-09-06T20:33:49.165Z,20.89
2022-09-06T20:36:17.138Z,20.89
2022-09-06T20:38:45.090Z,20.86
2022-09-06T20:41:17.785Z,20.84
2022-09-06T20:43:46.548Z,20.84
2022-09-06T20:46:16.972Z,20.81
2022-09-06T20:48:45.586Z,20.78
2022-09-06T20:51:19.021Z,20.73
2022-09-06T20:53:48.296Z,20.71
2022-09-06T20:56:17.170Z,20.67
2022-09-06T20:58:52.019Z,20.59
2022-09-06T21:01:24.003Z,20.54
2022-09-06T21:03:53.899Z,20.49
2022-09-06T21:06:21.561Z,20.47
2022-09-06T21:08:49.439Z,20.45
2022-09-06T21:11:16.233Z,20.42
2022-09-06T21:13:43.862Z,20.34
2022-09-06T21:16:10.725Z,20.30
2022-09-06T21:18:37.664Z,20.26
2022-09-06T21:21:06.972Z,20.22
2022-09-06T21:23:36.105Z,20.21
2022-09-06T21:26:08.574Z,20.21
2022-09-06T21:28:37.846Z,20.21
2022-09-06T21:31:17.669Z,20.22
2022-09-06T21:33:49.608Z,20.22
2022-09-06T21:36:18.366Z,20.22
2022-09-06T21:38:47.374Z,20.19
2022-09-06T21:41:16.205Z,20.20
2022-09-06T21:43:43.816Z,20.16
2022-09-06T21:46:16.604Z,20.16
2022-09-06T21:48:49.018Z,20.12
2022-09-06T21:51:18.489Z,20.07
2022-09-06T21:53:48.737Z,20.07
2022-09-06T21:56:16.504Z,20.08
2022-09-06T21:58:44.674Z,20.07
2022-09-06T22:01:11.509Z,20.03
2022-09-06T22:03:40.250Z,20.00
2022-09-06T22:06:21.956Z,19.96
2022-09-06T22:08:49.276Z,19.97
2022-09-06T22:11:20.091Z,19.97
2022-09-06T22:13:47.582Z,19.98
2022-09-06T22:16:15.927Z,19.99
2022-09-06T22:18:42.715Z,20.00
2022-09-06T22:21:12.377Z,19.96
2022-09-06T22:23:39.950Z,19.94
2022-09-06T22:26:09.714Z,19.91
2022-09-06T22:28:37.041Z,19.88
2022-09-06T22:31:04.558Z,19.86
2022-09-06T22:33:31.427Z,19.85
2022-09-06T22:36:01.225Z,19.85
2022-09-06T22:38:29.367Z,19.89
2022-09-06T22:40:57.302Z,19.86
2022-09-06T22:43:25.071Z,19.89
2022-09-06T22:45:52.261Z,19.92
2022-09-06T22:48:19.126Z,19.95
2022-09-06T22:50:47.310Z,19.96
2022-09-06T22:53:14.181Z,19.97
2022-09-06T22:55:46.955Z,20.01
2022-09-06T22:58:14.005Z,20.02
2022-09-06T23:00:40.749Z,20.04
2022-09-06T23:03:07.390Z,20.08
2022-09-06T23:05:34.291Z,20.11
2022-09-06T23:08:02.692Z,20.13
2022-09-06T23:10:30.451Z,20.11
2022-09-06T23:12:58.817Z,20.10
2022-09-06T23:15:26.108Z,20.06
2022-09-06T23:17:53.148Z,20.07
2022-09-06T23:20:20.054Z,20.07
2022-09-06T23:22:47.676Z,20.05
2022-09-06T23:25:14.753Z,20.01
2022-09-06T23:27:41.451Z,20.00
2022-09-06T23:30:08.935Z,19.95
2022-09-06T23:32:35.825Z,19.89
2022-09-06T23:35:02.724Z,19.79
2022-09-06T23:37:29.383Z,19.74
2022-09-06T23:39:56.183Z,19.74
2022-09-06T23:42:23.317Z,19.62
2022-09-06T23:44:54.528Z,19.74
2022-09-06T23:47:21.259Z,19.76
2022-09-06T23:49:50.632Z,19.78
2022-09-06T23:52:18.154Z,19.81
2022-09-06T23:54:44.874Z,19.82
2022-09-06T23:57:11.862Z,19.76
2022-09-06T23:59:38.724Z,19.73
